Milos, Greece
Current Conditions -  °F | °C
As of 12:20 AM on Saturday 29 Nov 2014 (Local Time) from LGSR Reporting Station
NA  
Wind Chill: 61°   Ceiling: NA
Heat Index: 61°   Visibility: NA
Dew Point: 57°   Wind: 3mph
Humidity: 88%   Direction: NA
Pressure: 30.24"   Gusts: NA
Location:  36.75°N, 24.43°E
Report Text: LGSR 282120Z AUTO VRB03KT //// // ////// 16/14 Q1024 RE//
Loading
Personal Weather Stations






























Interactive Weather Map New forecast layout! Learn more

10-Day Weather Forecast

Advertisements
Track Severe Weather on mobile